Bella Union Airport


Codes: SUBU/BUV
Name: Bella Union Airport
City: Bella Union
Country: Uruguay
Elevation: 70 ft.

Photos at Bella Union Airport


   Photos courtesy of SpottingLog. You can add your own sightings and photos by signing up for a free trial today.



No photos found.

Weather at Bella Union Airport


Time (UTC)DescriptionTempratureWindCloud coverageVisibilityPressureHumidity
16-Jun-2024 03:00Light Rain18°C16 mph, SE99%10000m1015hPa90%
16-Jun-2024 06:00Overcast Clouds17°C18 mph, E98%10000m1015hPa92%
16-Jun-2024 09:00Light Rain16°C16 mph, SE100%10000m1014hPa94%
16-Jun-2024 12:00Light Rain17°C18 mph, E100%10000m1015hPa93%
16-Jun-2024 15:00Light Rain17°C16 mph, E100%10000m1015hPa95%
16-Jun-2024 18:00Moderate Rain16°C18 mph, E100%10000m1014hPa94%
16-Jun-2024 21:00Light Rain16°C16 mph, SE100%10000m1015hPa93%
17-Jun-2024 00:00Light Rain15°C16 mph, SE100%10000m1016hPa92%
17-Jun-2024 03:00Broken Clouds15°C16 mph, E77%10000m1015hPa92%
17-Jun-2024 06:00Broken Clouds14°C11 mph, E54%10000m1014hPa95%
17-Jun-2024 09:00Overcast Clouds14°C9 mph, SE93%10000m1013hPa94%
17-Jun-2024 12:00Overcast Clouds15°C11 mph, SE96%10000m1014hPa93%
17-Jun-2024 15:00Overcast Clouds16°C13 mph, E100%10000m1013hPa89%
17-Jun-2024 18:00Overcast Clouds17°C11 mph, E100%10000m1011hPa88%
17-Jun-2024 21:00Overcast Clouds16°C9 mph, E100%10000m1010hPa90%
18-Jun-2024 00:00Overcast Clouds16°C9 mph, E100%10000m1010hPa91%
18-Jun-2024 03:00Overcast Clouds16°C7 mph, E100%10000m1009hPa92%
18-Jun-2024 06:00Overcast Clouds15°C4 mph, NE95%10000m1009hPa96%
18-Jun-2024 09:00Scattered Clouds14°C4 mph, N41%10000m1009hPa97%
18-Jun-2024 12:00Scattered Clouds15°C2 mph, N35%10000m1009hPa95%
18-Jun-2024 15:00Scattered Clouds20°C4 mph, N34%10000m1008hPa81%
18-Jun-2024 18:00Broken Clouds20°C7 mph, N57%10000m1006hPa84%
18-Jun-2024 21:00Overcast Clouds18°C4 mph, NE90%10000m1006hPa92%
19-Jun-2024 00:00Light Rain19°C4 mph, NE88%10000m1007hPa95%
19-Jun-2024 03:00Light Rain18°C7 mph, NE97%10000m1007hPa97%
19-Jun-2024 06:00Light Rain18°C7 mph, N99%10000m1007hPa98%
19-Jun-2024 09:00Moderate Rain18°C4 mph, NE100%9217m1007hPa98%
19-Jun-2024 12:00Moderate Rain18°C7 mph, NE100%10000m1009hPa97%
19-Jun-2024 15:00Light Rain21°C9 mph, NE85%10000m1009hPa86%
19-Jun-2024 18:00Light Rain21°C4 mph, NE86%10000m1008hPa86%
19-Jun-2024 21:00Light Rain20°C4 mph, NE94%10000m1009hPa94%
20-Jun-2024 00:00Overcast Clouds19°C4 mph, E94%10000m1012hPa95%
20-Jun-2024 03:00Overcast Clouds19°C4 mph, S99%10000m1013hPa96%
20-Jun-2024 06:00Overcast Clouds18°C9 mph, SE99%10000m1013hPa95%
20-Jun-2024 09:00Broken Clouds16°C11 mph, SE75%10000m1013hPa96%
20-Jun-2024 12:00Broken Clouds17°C11 mph, SE77%10000m1015hPa91%
20-Jun-2024 15:00Overcast Clouds19°C13 mph, E100%10000m1015hPa85%
20-Jun-2024 18:00Overcast Clouds19°C13 mph, E99%10000m1012hPa87%
20-Jun-2024 21:00Overcast Clouds18°C11 mph, E100%10000m1011hPa88%
21-Jun-2024 00:00Overcast Clouds19°C16 mph, E100%10000m1011hPa91%